Time;durP1;ratioP1;P1;durP2;ratioP2;P2;SDS_P1;SDS_P2;PMS_P1;PMS_P2;Temp;Humidity;BMP_temperature;BMP_pressure;BME280_temperature;BME280_humidity;BME280_pressure;Samples;Min_cycle;Max_cycle;Signal;HPM_P1;HPM_P2
2021/07/09 00:01:23;;;;;;;26.08;12.70;;;;;;;13.70;84.81;102338.28;5064548;28;20038;-52
2021/07/09 00:03:49;;;;;;;23.85;12.00;;;;;;;13.66;84.46;102334.66;5070273;28;20028;-52
2021/07/09 00:06:14;;;;;;;26.38;12.88;;;;;;;13.64;85.15;102340.75;5067354;28;20051;-52
2021/07/09 00:08:40;;;;;;;24.60;12.48;;;;;;;13.62;85.17;102345.94;5069846;28;20365;-49
2021/07/09 00:11:05;;;;;;;29.52;13.15;;;;;;;13.58;85.29;102338.88;5071627;28;20097;-53
2021/07/09 00:13:31;;;;;;;25.70;13.48;;;;;;;13.56;85.18;102335.31;5048277;28;20448;-50
2021/07/09 00:15:56;;;;;;;31.65;13.98;;;;;;;13.56;85.95;102339.66;5068122;28;20031;-53
2021/07/09 00:18:22;;;;;;;26.48;13.13;;;;;;;13.56;86.21;102337.03;5051326;28;20033;-51
2021/07/09 00:20:48;;;;;;;27.35;13.20;;;;;;;13.54;86.15;102331.75;5070458;28;20024;-52
2021/07/09 00:23:13;;;;;;;25.83;12.25;;;;;;;13.52;86.29;102325.63;5050120;28;20012;-49
2021/07/09 00:25:39;;;;;;;28.58;13.45;;;;;;;13.55;85.90;102324.78;5070707;28;20082;-49
2021/07/09 00:28:04;;;;;;;25.45;12.27;;;;;;;13.52;85.81;102320.38;5065750;28;20020;-51
2021/07/09 00:30:30;;;;;;;27.65;13.60;;;;;;;13.51;85.64;102315.97;5066622;28;20028;-50
2021/07/09 00:32:55;;;;;;;24.73;12.15;;;;;;;13.47;85.60;102322.00;5068665;28;20035;-50
2021/07/09 00:35:21;;;;;;;24.25;13.52;;;;;;;13.44;85.54;102314.06;5063195;28;20031;-52
2021/07/09 00:37:46;;;;;;;26.90;13.00;;;;;;;13.40;85.48;102315.72;5070292;28;20061;-53
2021/07/09 00:40:12;;;;;;;27.63;13.52;;;;;;;13.37;85.71;102318.25;5048819;28;20046;-48
2021/07/09 00:42:37;;;;;;;29.58;12.88;;;;;;;13.36;85.73;102312.97;5048561;28;20031;-53
2021/07/09 00:45:07;;;;;;;23.65;11.48;;;;;;;13.34;85.78;102309.44;5069287;28;20103;-49
2021/07/09 00:47:33;;;;;;;25.25;11.98;;;;;;;13.33;85.57;102318.16;5069137;28;20124;-52
2021/07/09 00:49:59;;;;;;;21.55;11.25;;;;;;;13.33;85.64;102320.75;5049051;28;20036;-49
2021/07/09 00:52:24;;;;;;;25.98;13.20;;;;;;;13.32;85.78;102317.25;5063202;28;20889;-52
2021/07/09 00:54:50;;;;;;;27.08;12.63;;;;;;;13.27;85.66;102321.50;5066512;28;20560;-51
2021/07/09 00:57:15;;;;;;;22.95;12.02;;;;;;;13.24;85.66;102324.03;5065930;28;20093;-49
2021/07/09 00:59:42;;;;;;;24.42;12.00;;;;;;;13.21;86.04;102323.97;5048460;28;20065;-49
2021/07/09 01:02:07;;;;;;;24.15;11.93;;;;;;;13.20;86.43;102326.53;5047532;28;20370;-50
2021/07/09 01:04:33;;;;;;;22.92;12.05;;;;;;;13.18;86.08;102320.34;5069711;28;20537;-54
2021/07/09 01:06:58;;;;;;;27.00;12.15;;;;;;;13.17;85.91;102311.66;5067225;28;20450;-51
2021/07/09 01:09:23;;;;;;;23.77;11.32;;;;;;;13.16;85.98;102312.50;5067085;28;20376;-49
2021/07/09 01:11:50;;;;;;;25.83;13.13;;;;;;;13.14;85.86;102316.78;5047602;28;20024;-53
2021/07/09 01:14:20;;;;;;;25.48;12.65;;;;;;;13.11;86.06;102318.41;5065170;28;20028;-49
2021/07/09 01:16:45;;;;;;;24.38;12.82;;;;;;;13.07;85.51;102322.66;5066617;28;20115;-52
2021/07/09 01:19:14;;;;;;;21.40;11.27;;;;;;;13.07;85.98;102319.16;5065001;28;20047;-48
2021/07/09 01:21:41;;;;;;;22.83;11.73;;;;;;;13.06;86.22;102322.63;5066534;28;20028;-51
2021/07/09 01:24:08;;;;;;;24.17;12.38;;;;;;;13.04;86.09;102317.38;5068083;28;20388;-53
2021/07/09 01:26:34;;;;;;;26.63;12.45;;;;;;;13.04;86.13;102322.63;5065828;28;20040;-51
2021/07/09 01:29:00;;;;;;;27.05;12.73;;;;;;;13.00;85.79;102324.25;5063749;28;20624;-50
2021/07/09 01:31:25;;;;;;;20.83;11.00;;;;;;;13.00;85.98;102325.97;5048265;28;20025;-53
2021/07/09 01:33:50;;;;;;;23.80;10.80;;;;;;;12.96;86.11;102311.94;5050391;28;20028;-52
2021/07/09 01:36:18;;;;;;;23.77;11.70;;;;;;;12.95;85.91;102312.78;5064075;28;20454;-52
2021/07/09 01:38:43;;;;;;;23.15;10.98;;;;;;;12.94;86.14;102315.34;5066118;28;20020;-54
2021/07/09 01:41:08;;;;;;;24.05;11.82;;;;;;;12.91;86.22;102312.66;5070837;28;20513;-48
2021/07/09 01:43:34;;;;;;;24.33;11.48;;;;;;;12.88;86.18;102323.03;5067132;28;20342;-47
2021/07/09 01:46:00;;;;;;;27.25;12.10;;;;;;;12.87;86.14;102323.88;5064139;28;20037;-51
2021/07/09 01:48:25;;;;;;;23.08;11.82;;;;;;;12.88;86.88;102320.41;5066084;28;20028;-48
2021/07/09 01:50:51;;;;;;;24.08;11.38;;;;;;;12.85;86.74;102321.22;5068597;28;20032;-52
2021/07/09 01:53:16;;;;;;;24.27;11.82;;;;;;;12.85;86.56;102323.84;5066179;28;20030;-50
2021/07/09 01:55:42;;;;;;;23.85;11.10;;;;;;;12.85;86.85;102320.34;5064208;28;20066;-50
2021/07/09 01:58:07;;;;;;;34.05;14.35;;;;;;;12.85;86.79;102322.97;5068274;28;20123;-54
2021/07/09 02:00:33;;;;;;;26.33;12.48;;;;;;;12.83;87.00;102320.28;5063603;28;20069;-51
2021/07/09 02:02:58;;;;;;;21.30;10.85;;;;;;;12.81;86.71;102321.09;5064578;28;20031;-49
2021/07/09 02:05:24;;;;;;;28.80;12.43;;;;;;;12.80;86.88;102316.72;5064614;28;20020;-51
2021/07/09 02:07:54;;;;;;;22.52;10.85;;;;;;;12.78;86.67;102307.94;5067174;28;20485;-50
2021/07/09 02:10:21;;;;;;;26.25;11.98;;;;;;;12.77;86.98;102304.44;5061002;28;20036;-47
2021/07/09 02:12:50;;;;;;;25.88;12.43;;;;;;;12.75;87.16;102307.84;5046524;28;20024;-51
2021/07/09 02:15:16;;;;;;;30.77;13.55;;;;;;;12.75;86.89;102306.09;5065583;28;20502;-49
2021/07/09 02:17:42;;;;;;;28.77;13.85;;;;;;;12.72;87.29;102308.66;5066883;28;20447;-53
2021/07/09 02:20:11;;;;;;;30.80;12.52;;;;;;;12.71;87.29;102300.75;5045795;28;20162;-51
2021/07/09 02:22:37;;;;;;;26.35;12.00;;;;;;;12.70;87.23;102305.09;5066333;28;21300;-52
2021/07/09 02:25:05;;;;;;;25.80;12.73;;;;;;;12.68;87.22;102301.56;5049037;28;20031;-49
2021/07/09 02:27:38;;;;;;;26.42;13.15;;;;;;;12.69;87.38;102308.56;5061788;28;20493;-52
2021/07/09 02:30:10;;;;;;;29.02;12.60;;;;;;;12.67;87.22;102301.53;5065465;28;20503;-51
2021/07/09 02:32:36;;;;;;;24.58;10.98;;;;;;;12.65;87.25;102305.81;5062191;28;20032;-48
2021/07/09 02:35:03;;;;;;;21.30;9.80;;;;;;;12.64;87.06;102301.41;5049977;28;20028;-52
2021/07/09 02:37:29;;;;;;;27.27;12.27;;;;;;;12.63;87.25;102305.78;5066475;28;20012;-50
2021/07/09 02:39:54;;;;;;;24.60;10.95;;;;;;;12.61;87.23;102302.25;5064849;28;20549;-49
2021/07/09 02:42:20;;;;;;;21.17;10.70;;;;;;;12.60;87.03;102303.09;5059698;28;20446;-49
2021/07/09 02:44:45;;;;;;;24.33;10.70;;;;;;;12.60;86.94;102305.69;5064709;28;20036;-47
2021/07/09 02:47:11;;;;;;;21.50;10.82;;;;;;;12.59;87.37;102304.81;5062692;28;20264;-48
2021/07/09 02:49:37;;;;;;;21.27;10.90;;;;;;;12.57;87.04;102301.25;5071198;28;20036;-54
2021/07/09 02:52:03;;;;;;;23.95;10.98;;;;;;;12.56;87.03;102301.25;5069160;28;20036;-51
2021/07/09 02:54:29;;;;;;;25.35;11.02;;;;;;;12.55;87.46;102305.56;5067621;28;20024;-49
2021/07/09 02:56:55;;;;;;;26.02;12.30;;;;;;;12.54;87.43;102301.19;5065884;28;20039;-52
2021/07/09 02:59:21;;;;;;;24.77;10.95;;;;;;;12.55;87.84;102304.69;5070563;28;20619;-52
2021/07/09 03:01:46;;;;;;;24.42;11.77;;;;;;;12.54;87.93;102298.56;5049578;28;20051;-48
2021/07/09 03:04:12;;;;;;;25.05;11.30;;;;;;;12.53;87.68;102296.78;5070797;28;20135;-49
2021/07/09 03:06:38;;;;;;;24.45;11.18;;;;;;;12.53;87.77;102295.91;5070599;28;20167;-48
2021/07/09 03:09:05;;;;;;;28.85;12.10;;;;;;;12.51;87.60;102297.56;5050848;28;20031;-48
2021/07/09 03:11:31;;;;;;;23.92;12.32;;;;;;;12.51;87.92;102301.09;5066028;28;20527;-50
2021/07/09 03:13:56;;;;;;;25.33;11.38;;;;;;;12.50;87.93;102304.53;5064672;28;20047;-49
2021/07/09 03:16:21;;;;;;;22.83;10.88;;;;;;;12.50;87.72;102301.06;5053439;28;20035;-49
2021/07/09 03:18:47;;;;;;;25.33;11.75;;;;;;;12.49;87.85;102305.41;5070147;28;20196;-51
2021/07/09 03:21:13;;;;;;;25.42;11.40;;;;;;;12.49;87.73;102301.91;5072072;28;20509;-50
2021/07/09 03:23:38;;;;;;;36.00;15.68;;;;;;;12.49;87.95;102296.66;5068660;28;20483;-52
2021/07/09 03:26:03;;;;;;;31.80;13.15;;;;;;;12.48;88.08;102300.13;5071874;28;20051;-48
2021/07/09 03:28:29;;;;;;;26.48;11.57;;;;;;;12.44;87.74;102291.28;5065982;28;20721;-51
2021/07/09 03:30:56;;;;;;;23.27;10.50;;;;;;;12.45;87.33;102294.78;5071594;28;20578;-50
2021/07/09 03:33:21;;;;;;;24.08;9.48;;;;;;;12.51;87.64;102294.97;5069420;28;20051;-48
2021/07/09 03:35:46;;;;;;;23.60;10.02;;;;;;;12.53;87.50;102286.31;5067110;28;20400;-49
2021/07/09 03:38:12;;;;;;;25.05;11.63;;;;;;;12.54;87.64;102292.44;5069467;28;20028;-50
2021/07/09 03:40:37;;;;;;;25.48;10.68;;;;;;;12.54;87.93;102297.69;5066916;28;20398;-51
2021/07/09 03:43:03;;;;;;;23.77;10.40;;;;;;;12.58;87.66;102296.91;5071353;28;20055;-48
2021/07/09 03:45:28;;;;;;;32.88;13.45;;;;;;;12.68;87.52;102295.44;5072135;28;20164;-52
2021/07/09 03:47:54;;;;;;;26.88;11.65;;;;;;;12.77;87.40;102299.19;5069648;28;20566;-48
2021/07/09 03:50:20;;;;;;;26.17;10.93;;;;;;;12.82;87.09;102292.34;5066063;28;20132;-49
2021/07/09 03:52:45;;;;;;;29.75;12.18;;;;;;;12.83;87.44;102291.50;5069108;28;20034;-49
2021/07/09 03:55:11;;;;;;;32.45;12.77;;;;;;;12.85;87.00;102295.06;5071145;28;20115;-49
2021/07/09 03:57:36;;;;;;;29.00;11.35;;;;;;;12.89;87.00;102296.00;5066455;28;20475;-50
2021/07/09 04:00:05;;;;;;;27.00;11.73;;;;;;;12.95;87.29;102298.78;5068692;28;20107;-49
2021/07/09 04:02:31;;;;;;;31.63;13.23;;;;;;;13.01;86.71;102307.69;5068844;28;20020;-49
2021/07/09 04:04:56;;;;;;;27.77;11.85;;;;;;;13.09;86.85;102307.00;5069861;28;20066;-50
2021/07/09 04:07:21;;;;;;;25.77;11.38;;;;;;;13.13;86.85;102309.78;5069597;28;20044;-50
2021/07/09 04:09:47;;;;;;;29.42;11.73;;;;;;;13.16;87.11;102312.50;5067996;28;20032;-50
2021/07/09 04:12:15;;;;;;;26.67;13.55;;;;;;;13.28;86.68;102312.81;5068194;28;20408;-51
2021/07/09 04:14:40;;;;;;;30.27;13.57;;;;;;;13.36;86.44;102311.22;5066676;28;20029;-52
2021/07/09 04:17:05;;;;;;;28.70;13.07;;;;;;;13.42;85.96;102320.13;5069103;28;20050;-50
2021/07/09 04:19:31;;;;;;;26.27;12.25;;;;;;;13.46;85.81;102319.34;5068238;28;20139;-49
2021/07/09 04:21:56;;;;;;;25.88;11.85;;;;;;;13.49;85.71;102320.28;5068927;28;20357;-48
2021/07/09 04:24:22;;;;;;;28.88;13.38;;;;;;;13.55;85.93;102322.16;5052724;28;20557;-52
2021/07/09 04:26:47;;;;;;;28.45;12.93;;;;;;;13.57;85.30;102318.75;5068649;28;20054;-49
2021/07/09 04:29:13;;;;;;;29.73;13.45;;;;;;;13.61;85.29;102310.09;5066483;28;20717;-53
2021/07/09 04:31:38;;;;;;;26.83;13.20;;;;;;;13.66;85.33;102305.00;5065354;28;20110;-52
2021/07/09 04:34:03;;;;;;;32.70;14.07;;;;;;;13.73;85.13;102306.88;5065065;28;20383;-50
2021/07/09 04:36:29;;;;;;;30.52;14.82;;;;;;;13.78;85.13;102311.38;5063043;28;20105;-55
2021/07/09 04:38:54;;;;;;;27.33;14.27;;;;;;;13.89;85.72;102310.75;5069578;28;20438;-47
2021/07/09 04:41:20;;;;;;;25.92;13.52;;;;;;;13.99;85.71;102315.34;5066019;28;20430;-52
2021/07/09 04:43:45;;;;;;;28.33;14.00;;;;;;;14.12;85.39;102320.00;5065452;28;20127;-48
2021/07/09 04:46:10;;;;;;;27.90;13.65;;;;;;;14.27;84.98;102309.84;5050482;28;20732;-52
2021/07/09 04:48:36;;;;;;;29.00;14.13;;;;;;;14.48;84.49;102318.19;5069049;28;20031;-48
2021/07/09 04:51:01;;;;;;;25.30;13.75;;;;;;;14.80;84.03;102321.47;5068552;28;20036;-52
2021/07/09 04:53:27;;;;;;;25.02;12.57;;;;;;;15.21;83.35;102321.31;5064188;28;20016;-52
2021/07/09 04:55:53;;;;;;;23.88;13.23;;;;;;;15.53;81.46;102317.53;5066328;28;20044;-54
2021/07/09 04:58:18;;;;;;;22.08;12.23;;;;;;;15.96;80.55;102315.53;5069037;28;20070;-53
2021/07/09 05:00:43;;;;;;;20.15;11.88;;;;;;;16.74;77.76;102320.94;5066603;28;20020;-51
2021/07/09 05:03:09;;;;;;;18.33;11.25;;;;;;;17.73;74.04;102306.06;5070126;28;20465;-51
2021/07/09 05:05:34;;;;;;;18.52;11.05;;;;;;;18.58;70.45;102315.31;5067238;28;20032;-49
2021/07/09 05:07:59;;;;;;;16.27;10.30;;;;;;;18.86;68.24;102320.66;5064666;28;20304;-51
2021/07/09 05:10:25;;;;;;;16.98;10.55;;;;;;;18.76;68.21;102325.06;5065140;28;20039;-52
2021/07/09 05:12:50;;;;;;;16.40;10.10;;;;;;;18.72;69.60;102317.13;5065461;28;20051;-52
2021/07/09 05:15:16;;;;;;;13.93;9.77;;;;;;;19.09;68.92;102332.16;5069950;28;20074;-52
2021/07/09 05:17:41;;;;;;;15.98;9.90;;;;;;;19.66;66.98;102322.50;5063938;28;20043;-50
2021/07/09 05:20:07;;;;;;;16.90;10.30;;;;;;;20.03;64.37;102329.50;5063618;28;20024;-53
2021/07/09 05:22:32;;;;;;;17.73;10.05;;;;;;;20.12;64.30;102321.56;5066586;28;20039;-50
2021/07/09 05:24:58;;;;;;;14.10;10.20;;;;;;;19.69;65.01;102326.06;5046703;28;20543;-53
2021/07/09 05:27:26;;;;;;;19.67;10.00;;;;;;;19.47;66.78;102326.03;5062002;28;20582;-50
2021/07/09 05:29:52;;;;;;;17.83;10.30;;;;;;;19.11;68.62;102332.16;5049260;28;20118;-51
2021/07/09 05:32:21;;;;;;;19.50;10.75;;;;;;;18.97;69.04;102332.13;5066150;28;20251;-52
2021/07/09 05:34:46;;;;;;;19.15;10.75;;;;;;;18.91;69.82;102334.75;5066534;28;20450;-52
2021/07/09 05:37:12;;;;;;;17.08;11.07;;;;;;;18.81;69.70;102333.00;5064301;28;20120;-53
2021/07/09 05:39:37;;;;;;;19.13;11.32;;;;;;;18.76;70.24;102332.97;5046058;28;20039;-52
2021/07/09 05:42:04;;;;;;;17.92;10.57;;;;;;;18.55;69.32;102330.25;5067985;28;20592;-49
2021/07/09 05:44:29;;;;;;;19.88;11.25;;;;;;;18.39;70.69;102334.56;5043572;28;20055;-53
2021/07/09 05:46:57;;;;;;;20.50;11.13;;;;;;;18.38;70.39;102329.28;5050931;28;20040;-52
2021/07/09 05:49:22;;;;;;;22.50;12.23;;;;;;;18.23;70.81;102331.00;5049653;28;20039;-49
2021/07/09 05:51:47;;;;;;;24.30;12.38;;;;;;;18.08;71.28;102338.81;5050142;28;20399;-50
2021/07/09 05:54:13;;;;;;;20.58;12.20;;;;;;;18.25;71.23;102329.22;5067317;28;20032;-51
2021/07/09 05:56:39;;;;;;;20.42;11.30;;;;;;;18.42;70.65;102333.72;5063038;28;20028;-51
2021/07/09 05:59:04;;;;;;;21.75;11.38;;;;;;;18.59;69.53;102335.59;5066227;28;20028;-48
2021/07/09 06:01:29;;;;;;;19.55;11.70;;;;;;;18.77;70.65;102336.50;5064895;28;20082;-52
2021/07/09 06:03:55;;;;;;;20.65;11.82;;;;;;;19.16;68.75;102333.03;5067866;28;20022;-51
2021/07/09 06:06:20;;;;;;;20.50;11.85;;;;;;;19.44;67.78;102329.56;5066627;28;20976;-53
2021/07/09 06:08:46;;;;;;;22.52;12.30;;;;;;;19.79;66.23;102329.56;5065995;28;20044;-52
2021/07/09 06:11:11;;;;;;;20.88;12.15;;;;;;;19.94;66.69;102323.38;5066514;28;20628;-52
2021/07/09 06:13:37;;;;;;;21.35;11.10;;;;;;;20.40;65.70;102332.06;5062971;28;20366;-50
2021/07/09 06:16:03;;;;;;;22.17;12.43;;;;;;;20.86;63.62;102327.44;5062715;28;20086;-53
2021/07/09 06:18:28;;;;;;;18.70;11.18;;;;;;;21.69;60.53;102326.81;5068463;28;20380;-53
2021/07/09 06:20:54;;;;;;;22.77;13.00;;;;;;;22.00;58.05;102324.75;5066279;28;20115;-53
2021/07/09 06:23:19;;;;;;;20.30;13.20;;;;;;;22.38;56.92;102321.66;5063852;28;20563;-54
2021/07/09 06:25:44;;;;;;;17.30;11.80;;;;;;;21.97;58.32;102323.88;5049286;28;20480;-50
2021/07/09 06:28:10;;;;;;;16.35;11.10;;;;;;;22.63;55.36;102317.75;5066169;28;20032;-53
2021/07/09 06:30:35;;;;;;;20.33;12.45;;;;;;;22.10;56.93;102317.53;5063718;28;20482;-53
2021/07/09 06:33:01;;;;;;;19.25;11.88;;;;;;;21.75;58.00;102309.94;5064533;28;20137;-49
2021/07/09 06:35:29;;;;;;;16.70;11.40;;;;;;;21.93;59.46;102315.06;5060322;28;20024;-48
2021/07/09 06:37:58;;;;;;;18.25;11.90;;;;;;;22.33;58.33;102315.50;5065539;28;20297;-47
2021/07/09 06:40:24;;;;;;;15.93;10.45;;;;;;;23.08;56.70;102315.34;5058016;28;20035;-48
2021/07/09 06:42:50;;;;;;;17.27;11.00;;;;;;;23.52;54.90;102308.47;5061650;28;20531;-48
2021/07/09 06:45:16;;;;;;;17.30;10.95;;;;;;;22.81;54.54;102319.28;5046473;28;20034;-52
2021/07/09 06:47:41;;;;;;;16.45;11.13;;;;;;;23.21;53.45;102311.59;5059300;28;20455;-50
2021/07/09 06:50:07;;;;;;;16.50;10.23;;;;;;;23.42;55.63;102308.56;5061101;28;20114;-51
2021/07/09 06:52:33;;;;;;;13.40;9.10;;;;;;;24.08;51.41;102302.97;5059820;28;20028;-50
2021/07/09 06:54:58;;;;;;;16.40;9.63;;;;;;;24.14;53.34;102305.50;5065959;28;20032;-51
2021/07/09 06:57:24;;;;;;;13.75;9.30;;;;;;;24.37;50.04;102305.06;5065419;28;20039;-49
2021/07/09 06:59:49;;;;;;;17.25;9.77;;;;;;;23.72;54.50;102307.22;5064867;28;20061;-53
2021/07/09 07:02:14;;;;;;;15.45;9.40;;;;;;;24.46;51.17;102310.16;5066367;28;20031;-51
2021/07/09 07:04:40;;;;;;;15.73;8.93;;;;;;;24.86;49.73;102295.97;5062014;28;20028;-50
2021/07/09 07:07:07;;;;;;;12.70;7.82;;;;;;;25.23;47.52;102310.22;5063988;28;20416;-50
2021/07/09 07:09:32;;;;;;;12.68;7.63;;;;;;;26.01;45.44;102302.81;5046158;28;20028;-51
2021/07/09 07:12:02;;;;;;;13.95;8.88;;;;;;;25.33;48.16;102306.38;5063337;28;20038;-50
2021/07/09 07:14:28;;;;;;;14.27;8.80;;;;;;;25.20;49.00;102318.28;5061725;28;20463;-51
2021/07/09 07:16:54;;;;;;;13.52;9.18;;;;;;;25.37;48.84;102304.53;5068086;28;20035;-47
2021/07/09 07:19:19;;;;;;;15.23;8.88;;;;;;;25.46;47.31;102304.28;5061809;28;20024;-51
2021/07/09 07:21:45;;;;;;;13.00;8.23;;;;;;;25.58;49.34;102308.44;5063667;28;20024;-51
2021/07/09 07:24:10;;;;;;;11.73;7.68;;;;;;;26.20;45.44;102306.72;5066270;28;20047;-48
2021/07/09 07:26:35;;;;;;;12.02;7.60;;;;;;;26.13;46.29;102305.16;5062540;28;20300;-51
2021/07/09 07:29:01;;;;;;;12.57;7.90;;;;;;;26.84;45.01;102300.31;5063808;28;20093;-49
2021/07/09 07:31:27;;;;;;;13.32;7.53;;;;;;;26.90;44.95;102300.16;5065277;28;20067;-54
2021/07/09 07:33:53;;;;;;;11.90;6.88;;;;;;;27.18;44.43;102304.63;5067060;28;20046;-49
2021/07/09 07:36:18;;;;;;;11.20;7.20;;;;;;;27.17;44.47;102308.22;5069560;28;20441;-48
2021/07/09 07:38:45;;;;;;;10.95;6.65;;;;;;;27.12;42.02;102303.03;5064143;28;20503;-49
2021/07/09 07:41:10;;;;;;;11.43;7.00;;;;;;;26.70;45.06;102312.41;5065772;28;20036;-53
2021/07/09 07:43:36;;;;;;;10.90;7.03;;;;;;;26.07;45.05;102306.19;5065442;28;20074;-52
2021/07/09 07:46:01;;;;;;;12.20;7.93;;;;;;;25.99;47.98;102310.00;5063427;28;20082;-53
2021/07/09 07:48:27;;;;;;;12.48;8.15;;;;;;;26.45;45.26;102315.81;5059701;28;20044;-52
2021/07/09 07:50:52;;;;;;;11.23;7.88;;;;;;;27.26;42.80;102305.25;5064954;28;20544;-52
2021/07/09 07:53:17;;;;;;;11.07;7.35;;;;;;;27.33;43.75;102304.97;5043380;28;20421;-50
2021/07/09 07:55:43;;;;;;;11.95;8.52;;;;;;;26.52;44.29;102304.03;5067371;28;20054;-53
2021/07/09 07:58:08;;;;;;;11.98;9.00;;;;;;;25.38;46.43;102306.25;5069114;28;20028;-50
2021/07/09 08:00:34;;;;;;;11.90;8.75;;;;;;;25.89;46.69;102312.06;5044279;28;20600;-51
2021/07/09 08:02:59;;;;;;;13.57;8.80;;;;;;;25.46;46.99;102317.63;5061850;28;20028;-53
2021/07/09 08:05:26;;;;;;;14.63;9.32;;;;;;;24.29;50.36;102309.66;5063948;28;20071;-49
2021/07/09 08:07:51;;;;;;;13.02;8.90;;;;;;;24.06;50.10;102311.88;5067310;28;20043;-52
2021/07/09 08:10:16;;;;;;;16.45;8.93;;;;;;;23.53;52.94;102319.09;5061802;28;20650;-51
2021/07/09 08:12:43;;;;;;;17.17;8.90;;;;;;;22.94;52.56;102330.63;5066483;28;20043;-50
2021/07/09 08:15:08;;;;;;;15.15;9.18;;;;;;;22.73;55.33;102323.00;5067998;28;20029;-53
2021/07/09 08:17:34;;;;;;;13.88;8.35;;;;;;;23.27;52.94;102324.81;5066102;28;20036;-51
2021/07/09 08:19:59;;;;;;;12.82;8.88;;;;;;;23.54;52.90;102322.63;5065349;28;20024;-50
2021/07/09 08:22:24;;;;;;;12.15;8.77;;;;;;;23.99;50.42;102319.13;5066406;28;20040;-50
2021/07/09 08:24:50;;;;;;;11.95;7.97;;;;;;;24.42;49.73;102313.81;5055605;28;20024;-50
2021/07/09 08:27:15;;;;;;;11.10;8.52;;;;;;;25.10;48.30;102307.88;5062088;28;20409;-48
2021/07/09 08:29:41;;;;;;;11.00;7.78;;;;;;;25.94;48.33;102312.81;5063962;28;20336;-49
2021/07/09 08:32:06;;;;;;;13.02;7.88;;;;;;;26.37;46.27;102303.59;5061647;28;20029;-50
2021/07/09 08:34:32;;;;;;;11.32;7.65;;;;;;;26.39;44.35;102307.97;5063567;28;20292;-54
2021/07/09 08:36:57;;;;;;;11.73;7.68;;;;;;;26.45;46.60;102312.25;5069589;28;20039;-50
2021/07/09 08:39:23;;;;;;;12.25;7.45;;;;;;;27.19;45.40;102309.94;5042650;28;20103;-50
2021/07/09 08:41:48;;;;;;;11.40;7.20;;;;;;;27.38;44.92;102302.16;5064737;28;20131;-51
2021/07/09 08:44:15;;;;;;;9.77;6.70;;;;;;;27.28;45.93;102303.38;5062269;28;20017;-53
2021/07/09 08:46:41;;;;;;;10.68;6.90;;;;;;;26.92;44.76;102302.78;5061793;28;20470;-49
2021/07/09 08:49:08;;;;;;;10.13;6.75;;;;;;;26.94;43.77;102298.28;5064954;28;20089;-50
2021/07/09 08:51:34;;;;;;;12.48;6.75;;;;;;;26.73;47.49;102291.75;5060747;28;20028;-48
2021/07/09 08:53:59;;;;;;;10.63;6.00;;;;;;;26.34;44.95;102290.31;5048622;28;20905;-49
2021/07/09 08:56:25;;;;;;;9.02;6.00;;;;;;;26.23;46.48;102291.50;5068941;28;20024;-52
2021/07/09 08:58:50;;;;;;;8.77;6.00;;;;;;;26.15;46.91;102295.28;5049267;28;20020;-48
2021/07/09 09:01:16;;;;;;;9.27;6.20;;;;;;;25.78;48.21;102291.00;5053198;28;20035;-51
2021/07/09 09:03:41;;;;;;;11.10;6.75;;;;;;;25.75;45.96;102287.50;5069039;28;20226;-49
2021/07/09 09:06:12;;;;;;;8.48;6.25;;;;;;;25.19;47.58;102283.63;5067045;28;20110;-52
2021/07/09 09:08:38;;;;;;;10.43;6.47;;;;;;;24.71;48.79;102297.16;5046536;28;20124;-47
2021/07/09 09:11:04;;;;;;;10.60;6.18;;;;;;;24.35;49.43;102289.97;5068971;28;20263;-48
2021/07/09 09:13:32;;;;;;;10.05;5.50;;;;;;;23.92;51.64;102295.28;5063822;28;20024;-49
2021/07/09 09:16:03;;;;;;;12.15;6.20;;;;;;;23.65;50.76;102294.03;5036975;28;20093;-51
2021/07/09 09:18:31;;;;;;;10.48;6.20;;;;;;;24.04;48.28;102285.25;5047033;28;20543;-52
2021/07/09 09:20:56;;;;;;;8.45;5.95;;;;;;;24.43;49.75;102293.38;5062646;28;20024;-52
2021/07/09 09:23:22;;;;;;;13.57;6.18;;;;;;;24.45;50.81;102288.91;5065443;28;20032;-50
2021/07/09 09:25:47;;;;;;;10.57;6.00;;;;;;;24.97;50.20;102289.47;5065313;28;20032;-49
2021/07/09 09:28:13;;;;;;;10.23;6.78;;;;;;;24.78;48.56;102285.47;5065739;28;20633;-51
2021/07/09 09:30:43;;;;;;;10.02;5.68;;;;;;;25.10;48.02;102286.53;5062340;28;20055;-49
2021/07/09 09:33:11;;;;;;;10.25;6.60;;;;;;;24.50;50.67;102297.66;5063176;28;20051;-49
2021/07/09 09:35:42;;;;;;;10.75;6.40;;;;;;;24.30;49.67;102299.88;5043933;28;20032;-50
2021/07/09 09:38:13;;;;;;;9.00;6.07;;;;;;;23.86;49.54;102289.16;5066475;28;20031;-54
2021/07/09 09:40:40;;;;;;;8.98;6.28;;;;;;;23.69;52.13;102290.41;5060591;28;20032;-51
2021/07/09 09:43:17;;;;;;;9.95;6.85;;;;;;;23.96;51.52;102289.00;5064615;28;20499;-50
2021/07/09 09:45:44;;;;;;;10.77;6.95;;;;;;;24.40;51.06;102290.75;5068403;28;20543;-48
2021/07/09 09:48:14;;;;;;;8.88;5.97;;;;;;;24.93;49.69;102290.47;5064326;28;20351;-48
2021/07/09 09:50:48;;;;;;;8.10;5.35;;;;;;;25.15;47.76;102287.28;5062103;28;20554;-51
2021/07/09 09:53:14;;;;;;;9.48;6.03;;;;;;;24.64;49.78;102291.09;5048459;28;20024;-50
2021/07/09 09:55:40;;;;;;;8.98;5.88;;;;;;;24.46;48.64;102291.50;5062396;28;20037;-49
2021/07/09 09:58:19;;;;;;;7.63;5.50;;;;;;;24.18;48.91;102291.22;5044912;28;20043;-50
2021/07/09 10:00:46;;;;;;;11.63;5.90;;;;;;;23.74;49.94;102294.72;5060996;28;20040;-52
2021/07/09 10:03:12;;;;;;;10.07;6.03;;;;;;;23.08;51.31;102296.75;5042548;28;20070;-53
2021/07/09 10:05:42;;;;;;;9.63;6.55;;;;;;;22.70;54.31;102296.38;5060845;28;20108;-49
2021/07/09 10:08:12;;;;;;;10.70;6.72;;;;;;;22.42;56.02;102295.91;5030123;28;81317;-50
2021/07/09 10:10:39;;;;;;;10.50;7.47;;;;;;;22.71;53.93;102290.19;5040015;28;20479;-51
2021/07/09 10:13:06;;;;;;;10.35;6.28;;;;;;;23.34;52.62;102294.53;5064453;28;20117;-49
2021/07/09 10:15:31;;;;;;;7.90;5.68;;;;;;;24.06;50.92;102285.25;5063042;28;20023;-51
2021/07/09 10:17:58;;;;;;;9.68;6.10;;;;;;;23.96;50.04;102286.34;5047804;28;20526;-48
2021/07/09 10:20:24;;;;;;;8.98;6.68;;;;;;;23.84;49.35;102291.00;5061407;28;20042;-49
2021/07/09 10:22:50;;;;;;;9.80;6.55;;;;;;;23.97;49.62;102280.09;5065990;28;20020;-49
2021/07/09 10:25:17;;;;;;;9.20;6.60;;;;;;;24.20;47.93;102280.53;5048210;28;20035;-50
2021/07/09 10:27:43;;;;;;;8.40;5.82;;;;;;;24.40;47.35;102278.31;5046010;28;20175;-49
2021/07/09 10:30:09;;;;;;;7.88;5.57;;;;;;;24.64;46.41;102275.09;5059825;28;20033;-52
2021/07/09 10:32:42;;;;;;;8.70;4.93;;;;;;;25.02;46.52;102271.56;5062125;28;20032;-49
2021/07/09 10:35:10;;;;;;;9.38;5.35;;;;;;;25.08;49.06;102275.00;5061197;28;20133;-51
2021/07/09 10:37:36;;;;;;;8.13;5.40;;;;;;;24.99;48.86;102278.78;5062580;28;20043;-50
2021/07/09 10:40:19;;;;;;;10.23;5.65;;;;;;;25.29;46.77;102270.00;5067062;28;20028;-49
2021/07/09 10:42:48;;;;;;;8.20;5.30;;;;;;;25.43;46.99;102267.84;5059988;28;20032;-52
2021/07/09 10:45:22;;;;;;;8.85;5.53;;;;;;;25.70;47.35;102265.38;5047644;28;20028;-49
2021/07/09 10:47:47;;;;;;;;;;;;;;;25.90;46.01;102270.19;5064067;28;20036;-51
2021/07/09 10:50:35;;;;;;;6.87;5.10;;;;;;;25.72;45.69;102267.13;5062729;28;19920;-49
2021/07/09 10:53:18;;;;;;;7.95;5.55;;;;;;;25.48;45.47;102272.19;5067876;28;20105;-52
2021/07/09 10:55:52;;;;;;;8.63;5.75;;;;;;;24.92;48.45;102270.03;5061065;28;20028;-53
2021/07/09 10:58:25;;;;;;;7.95;5.78;;;;;;;24.63;49.66;102270.72;5063140;28;20062;-53
2021/07/09 11:00:57;;;;;;;;;;;;;;;24.38;48.70;102273.94;5062080;28;20468;-49
2021/07/09 11:03:25;;;;;;;9.48;6.90;;;;;;;24.37;49.39;102266.84;5068460;28;19920;-49
2021/07/09 11:05:50;;;;;;;9.68;6.82;;;;;;;24.41;47.69;102271.19;5058295;28;20574;-53
2021/07/09 11:08:31;;;;;;;10.33;7.40;;;;;;;24.39;48.03;102267.72;5066991;28;20082;-47
2021/07/09 11:11:06;;;;;;;8.80;6.97;;;;;;;24.49;48.77;102278.13;5062291;28;20294;-49